Time;durP1;ratioP1;P1;durP2;ratioP2;P2;SDS_P1;SDS_P2;PMS_P1;PMS_P2;Temp;Humidity;BMP_temperature;BMP_pressure;BME280_temperature;BME280_humidity;BME280_pressure;Samples;Min_cycle;Max_cycle;Signal;HPM_P1;HPM_P2
2023/06/28 00:01:44;;;;;;;158.20;146.57;;;;;;;;;;5050132;28;20060;-66
2023/06/28 00:04:12;;;;;;;158.20;145.73;;;;;;;;;;5032332;28;20041;-66
2023/06/28 00:06:39;;;;;;;164.52;150.75;;;;;;;;;;5050604;28;20111;-67
2023/06/28 00:09:05;;;;;;;172.98;157.10;;;;;;;;;;5032149;28;20135;-67
2023/06/28 00:11:32;;;;;;;167.02;152.77;;;;;;;;;;5032747;28;20052;-65
2023/06/28 00:13:59;;;;;;;163.90;150.70;;;;;;;;;;5032555;28;20045;-64
2023/06/28 00:16:25;;;;;;;156.93;143.68;;;;;;;;;;5050744;28;20129;-64
2023/06/28 00:18:52;;;;;;;145.65;134.68;;;;;;;;;;5046337;28;20045;-65
2023/06/28 00:21:19;;;;;;;159.68;146.80;;;;;;;;;;5049276;28;20056;-65
2023/06/28 00:23:45;;;;;;;156.20;144.13;;;;;;;;;;5051668;28;20045;-64
2023/06/28 00:26:12;;;;;;;154.95;141.52;;;;;;;;;;5033299;28;20132;-66
2023/06/28 00:28:40;;;;;;;162.18;148.65;;;;;;;;;;5051109;28;20402;-65
2023/06/28 00:31:08;;;;;;;157.20;144.07;;;;;;;;;;5032368;28;20050;-66
2023/06/28 00:33:34;;;;;;;145.63;134.70;;;;;;;;;;5046318;28;20048;-64
2023/06/28 00:36:01;;;;;;;188.30;155.80;;;;;;;;;;5032612;28;20401;-67
2023/06/28 00:38:27;;;;;;;159.30;147.07;;;;;;;;;;5051538;28;20044;-66
2023/06/28 00:40:55;;;;;;;157.20;144.05;;;;;;;;;;5032595;28;20056;-66
2023/06/28 00:43:21;;;;;;;150.57;137.68;;;;;;;;;;5030994;28;20052;-67
2023/06/28 00:45:49;;;;;;;160.07;148.00;;;;;;;;;;5048893;28;20108;-64
2023/06/28 00:48:16;;;;;;;159.38;146.95;;;;;;;;;;5050189;28;20048;-64
2023/06/28 00:50:43;;;;;;;155.18;142.18;;;;;;;;;;5047903;28;20061;-65
2023/06/28 00:53:10;;;;;;;152.57;141.27;;;;;;;;;;5049076;28;20105;-64
2023/06/28 00:55:38;;;;;;;152.07;140.55;;;;;;;;;;5048796;28;20048;-64
2023/06/28 00:58:05;;;;;;;147.95;136.77;;;;;;;;;;5032376;28;20067;-64
2023/06/28 01:00:32;;;;;;;148.85;137.43;;;;;;;;;;5032110;28;20041;-68
2023/06/28 01:03:00;;;;;;;179.05;152.65;;;;;;;;;;5049933;28;20057;-64
2023/06/28 01:05:28;;;;;;;150.05;137.35;;;;;;;;;;5050872;28;20577;-64
2023/06/28 01:07:55;;;;;;;148.10;136.60;;;;;;;;;;5049867;28;20033;-65
2023/06/28 01:10:24;;;;;;;149.45;137.88;;;;;;;;;;5031450;28;20483;-65
2023/06/28 01:12:51;;;;;;;149.25;136.13;;;;;;;;;;5052839;28;20068;-64
2023/06/28 01:15:18;;;;;;;152.38;139.27;;;;;;;;;;5035509;28;20102;-67
2023/06/28 01:17:45;;;;;;;151.88;138.02;;;;;;;;;;5036451;28;20411;-65
2023/06/28 01:20:12;;;;;;;153.07;139.55;;;;;;;;;;5053681;28;20067;-64
2023/06/28 01:22:43;;;;;;;147.55;134.27;;;;;;;;;;5035396;28;20124;-64
2023/06/28 01:25:10;;;;;;;149.70;136.02;;;;;;;;;;5035547;28;20402;-64
2023/06/28 01:27:40;;;;;;;142.73;131.10;;;;;;;;;;5035490;28;20143;-64
2023/06/28 01:30:07;;;;;;;160.63;143.43;;;;;;;;;;5034549;28;20053;-64
2023/06/28 01:32:34;;;;;;;148.43;135.50;;;;;;;;;;5036270;28;20395;-64
2023/06/28 01:35:01;;;;;;;149.75;138.05;;;;;;;;;;5053157;28;20056;-64
2023/06/28 01:37:28;;;;;;;147.88;135.35;;;;;;;;;;5035352;28;20120;-66
2023/06/28 01:39:54;;;;;;;137.02;125.22;;;;;;;;;;5053369;28;20045;-67
2023/06/28 01:42:21;;;;;;;138.82;127.30;;;;;;;;;;5053157;28;20498;-65
2023/06/28 01:44:48;;;;;;;140.40;129.43;;;;;;;;;;5049486;28;20103;-67
2023/06/28 01:47:14;;;;;;;143.25;130.25;;;;;;;;;;5053183;28;20041;-65
2023/06/28 01:49:41;;;;;;;143.52;132.45;;;;;;;;;;5052903;28;20052;-65
2023/06/28 01:52:08;;;;;;;139.75;127.57;;;;;;;;;;5052767;28;20033;-64
2023/06/28 01:54:35;;;;;;;150.75;135.80;;;;;;;;;;5052782;28;20470;-65
2023/06/28 01:57:02;;;;;;;146.88;129.68;;;;;;;;;;5035211;28;20041;-69
2023/06/28 01:59:30;;;;;;;142.57;131.02;;;;;;;;;;5052363;28;20045;-64
2023/06/28 02:01:58;;;;;;;169.00;121.50;;;;;;;;;;5049981;22;20125;-65
2023/06/28 02:04:24;;;;;;;125.25;112.18;;;;;;;;;;5103196;28;20036;-63
2023/06/28 02:06:52;;;;;;;120.63;109.00;;;;;;;;;;5081635;28;20050;-64
2023/06/28 02:09:18;;;;;;;145.48;115.50;;;;;;;;;;5099255;28;20092;-65
2023/06/28 02:11:45;;;;;;;127.90;114.78;;;;;;;;;;5082278;28;20622;-64
2023/06/28 02:14:12;;;;;;;121.20;110.88;;;;;;;;;;5105327;28;20131;-64
2023/06/28 02:16:41;;;;;;;124.75;111.60;;;;;;;;;;5100340;28;20047;-64
2023/06/28 02:19:12;;;;;;;130.15;113.82;;;;;;;;;;5082231;28;20394;-65
2023/06/28 02:21:42;;;;;;;122.18;110.72;;;;;;;;;;5091074;28;20131;-63
2023/06/28 02:24:09;;;;;;;152.82;113.95;;;;;;;;;;5082664;28;20052;-63
2023/06/28 02:26:36;;;;;;;132.63;119.05;;;;;;;;;;5101583;28;20048;-64
2023/06/28 02:29:02;;;;;;;118.80;106.75;;;;;;;;;;5102428;28;20073;-63
2023/06/28 02:31:29;;;;;;;129.07;115.90;;;;;;;;;;5088002;28;20394;-63
2023/06/28 02:33:56;;;;;;;128.95;114.82;;;;;;;;;;5083687;28;20043;-64
2023/06/28 02:36:22;;;;;;;129.38;116.63;;;;;;;;;;5084679;28;20132;-63
2023/06/28 02:38:49;;;;;;;125.50;112.50;;;;;;;;;;5082787;28;20455;-64
2023/06/28 02:41:16;;;;;;;129.85;118.63;;;;;;;;;;5101262;28;20526;-65
2023/06/28 02:43:43;;;;;;;123.97;112.60;;;;;;;;;;5102994;28;20123;-64
2023/06/28 02:46:09;;;;;;;128.95;116.18;;;;;;;;;;5081593;28;20493;-63
2023/06/28 02:48:36;;;;;;;128.73;114.40;;;;;;;;;;5083443;28;20443;-66
2023/06/28 02:51:03;;;;;;;149.38;119.65;;;;;;;;;;5082579;28;20056;-65
2023/06/28 02:53:30;;;;;;;131.65;118.40;;;;;;;;;;5102319;28;20119;-64
2023/06/28 02:55:57;;;;;;;125.00;114.82;;;;;;;;;;5102597;28;20135;-64
2023/06/28 02:58:43;;;;;;;122.72;110.15;;;;;;;;;;5096850;28;20126;-62
2023/06/28 03:01:11;;;;;;;125.07;112.57;;;;;;;;;;5085524;28;20048;-64
2023/06/28 03:03:37;;;;;;;123.97;111.38;;;;;;;;;;5081924;28;20067;-64
2023/06/28 03:06:04;;;;;;;172.73;122.57;;;;;;;;;;5090024;28;20044;-65
2023/06/28 03:08:31;;;;;;;125.95;113.47;;;;;;;;;;5081961;28;20052;-65
2023/06/28 03:10:58;;;;;;;120.55;109.18;;;;;;;;;;5103618;28;20093;-65
2023/06/28 03:13:25;;;;;;;122.43;109.45;;;;;;;;;;5082175;28;20043;-62
2023/06/28 03:15:52;;;;;;;127.22;114.43;;;;;;;;;;5082538;28;20032;-65
2023/06/28 03:18:19;;;;;;;126.05;113.22;;;;;;;;;;5063323;28;20047;-65
2023/06/28 03:20:46;;;;;;;124.95;111.53;;;;;;;;;;5084725;28;20062;-65
2023/06/28 03:23:12;;;;;;;131.57;118.30;;;;;;;;;;5081624;28;20047;-65
2023/06/28 03:25:39;;;;;;;126.78;114.07;;;;;;;;;;5099107;28;20043;-60
2023/06/28 03:28:07;;;;;;;137.80;120.10;;;;;;;;;;5082221;28;20047;-64
2023/06/28 03:30:35;;;;;;;134.70;121.55;;;;;;;;;;5081006;28;20115;-64
2023/06/28 03:33:03;;;;;;;153.75;130.52;;;;;;;;;;5081383;28;20763;-65
2023/06/28 03:35:30;;;;;;;142.13;127.70;;;;;;;;;;5076253;28;20138;-64
2023/06/28 03:37:57;;;;;;;141.40;127.03;;;;;;;;;;5084427;28;20078;-65
2023/06/28 03:40:24;;;;;;;141.95;129.90;;;;;;;;;;5082252;28;20054;-63
2023/06/28 03:42:50;;;;;;;145.48;130.70;;;;;;;;;;5095053;28;20550;-65
2023/06/28 03:45:17;;;;;;;141.52;128.45;;;;;;;;;;5083211;28;20496;-64
2023/06/28 03:47:45;;;;;;;145.65;131.00;;;;;;;;;;5084549;28;20048;-64
2023/06/28 03:50:12;;;;;;;147.32;129.95;;;;;;;;;;5082078;28;20047;-65
2023/06/28 03:52:39;;;;;;;142.85;128.23;;;;;;;;;;5099297;28;20055;-65
2023/06/28 03:55:06;;;;;;;138.50;125.63;;;;;;;;;;5082278;28;20046;-62
2023/06/28 03:57:33;;;;;;;151.40;135.27;;;;;;;;;;5102126;28;20039;-63
2023/06/28 03:59:59;;;;;;;191.30;141.05;;;;;;;;;;5064688;28;20446;-64
2023/06/28 04:02:26;;;;;;;156.90;141.18;;;;;;;;;;5098641;28;20051;-64
2023/06/28 04:04:53;;;;;;;155.80;140.65;;;;;;;;;;5104366;28;20044;-64
2023/06/28 04:07:24;;;;;;;164.77;149.20;;;;;;;;;;5100856;28;20055;-64
2023/06/28 04:09:52;;;;;;;168.23;151.13;;;;;;;;;;5100531;28;20044;-64
2023/06/28 04:12:19;;;;;;;165.27;149.27;;;;;;;;;;5100589;28;20032;-66
2023/06/28 04:14:45;;;;;;;167.68;151.77;;;;;;;;;;5099291;28;20408;-65
2023/06/28 04:17:12;;;;;;;165.18;149.18;;;;;;;;;;5101504;28;20562;-64
2023/06/28 04:19:39;;;;;;;165.02;149.68;;;;;;;;;;5100913;28;20039;-64
2023/06/28 04:22:05;;;;;;;168.10;152.43;;;;;;;;;;5094336;28;20040;-64
2023/06/28 04:24:32;;;;;;;168.38;155.60;;;;;;;;;;5099801;28;20119;-64
2023/06/28 04:27:00;;;;;;;179.30;157.95;;;;;;;;;;5099917;28;20098;-63
2023/06/28 04:29:27;;;;;;;166.23;152.15;;;;;;;;;;5084781;28;20051;-65
2023/06/28 04:31:55;;;;;;;172.90;155.02;;;;;;;;;;5098485;28;20460;-65
2023/06/28 04:34:22;;;;;;;166.15;150.73;;;;;;;;;;5101463;28;20078;-64
2023/06/28 04:36:49;;;;;;;155.75;141.32;;;;;;;;;;5098239;28;20476;-64
2023/06/28 04:39:32;;;;;;;176.32;161.25;;;;;;;;;;5085531;28;20047;-61
2023/06/28 04:42:03;;;;;;;198.77;164.48;;;;;;;;;;5089921;28;20040;-64
2023/06/28 04:44:34;;;;;;;151.93;137.15;;;;;;;;;;5102260;28;20056;-64
2023/06/28 04:47:00;;;;;;;158.23;142.25;;;;;;;;;;5100853;28;20047;-60
2023/06/28 04:49:27;;;;;;;148.20;135.70;;;;;;;;;;5096404;28;20044;-65
2023/06/28 04:51:54;;;;;;;164.68;150.63;;;;;;;;;;5107565;28;20093;-65
2023/06/28 04:54:21;;;;;;;158.52;146.43;;;;;;;;;;5085298;28;20032;-64
2023/06/28 04:56:47;;;;;;;142.57;128.40;;;;;;;;;;5103480;28;20044;-64
2023/06/28 04:59:14;;;;;;;148.32;136.27;;;;;;;;;;5101645;28;20529;-63
2023/06/28 05:01:41;;;;;;;136.25;124.97;;;;;;;;;;5106862;28;20044;-63
2023/06/28 05:04:08;;;;;;;131.77;117.78;;;;;;;;;;5085657;28;20040;-64
2023/06/28 05:06:35;;;;;;;131.32;118.28;;;;;;;;;;5104161;28;20065;-63
2023/06/28 05:09:02;;;;;;;152.75;124.93;;;;;;;;;;5101830;28;20055;-62
2023/06/28 05:11:28;;;;;;;132.73;119.85;;;;;;;;;;5104601;28;20043;-65
2023/06/28 05:13:55;;;;;;;132.10;119.90;;;;;;;;;;5086278;28;20500;-63
2023/06/28 05:16:22;;;;;;;142.73;128.63;;;;;;;;;;5101698;28;20055;-64
2023/06/28 05:18:49;;;;;;;132.85;122.65;;;;;;;;;;5108541;28;20211;-64
2023/06/28 05:21:16;;;;;;;138.20;126.65;;;;;;;;;;5103954;28;20036;-64
2023/06/28 05:23:42;;;;;;;141.68;126.15;;;;;;;;;;5085712;28;20508;-65
2023/06/28 05:26:09;;;;;;;150.35;135.73;;;;;;;;;;5105221;28;20040;-63
2023/06/28 05:28:36;;;;;;;151.32;138.38;;;;;;;;;;5107562;28;20040;-65
2023/06/28 05:31:02;;;;;;;170.05;155.25;;;;;;;;;;5087098;28;20044;-64
2023/06/28 05:33:29;;;;;;;178.52;162.40;;;;;;;;;;5100026;28;20115;-61
2023/06/28 05:35:56;;;;;;;168.93;152.75;;;;;;;;;;5102558;28;20050;-65
2023/06/28 05:38:22;;;;;;;186.85;168.30;;;;;;;;;;5102639;28;20055;-65
2023/06/28 05:40:52;;;;;;;188.02;173.38;;;;;;;;;;5104590;28;20048;-64
2023/06/28 05:43:21;;;;;;;184.80;168.20;;;;;;;;;;5083236;28;20048;-66
2023/06/28 05:45:49;;;;;;;199.82;180.70;;;;;;;;;;5105095;28;20086;-64
2023/06/28 05:48:16;;;;;;;226.85;205.75;;;;;;;;;;5105734;28;20503;-65
2023/06/28 05:50:45;;;;;;;423.40;390.27;;;;;;;;;;5106117;28;20517;-63
2023/06/28 05:53:11;;;;;;;418.48;385.70;;;;;;;;;;5104138;28;20050;-65
2023/06/28 05:55:38;;;;;;;406.00;373.77;;;;;;;;;;5100756;28;20093;-65
2023/06/28 05:58:05;;;;;;;407.58;375.83;;;;;;;;;;5104430;28;20040;-64
2023/06/28 06:00:31;;;;;;;398.42;364.73;;;;;;;;;;5104882;28;20096;-64
2023/06/28 06:02:58;;;;;;;401.85;367.02;;;;;;;;;;5101888;28;20108;-65
2023/06/28 06:05:25;;;;;;;387.30;357.98;;;;;;;;;;5088901;28;20069;-63
2023/06/28 06:07:51;;;;;;;391.60;361.52;;;;;;;;;;5101245;28;20040;-63
2023/06/28 06:10:18;;;;;;;407.27;376.75;;;;;;;;;;5101077;28;20043;-64
2023/06/28 06:12:45;;;;;;;396.38;366.25;;;;;;;;;;5103766;28;20043;-64
2023/06/28 06:15:12;;;;;;;415.25;381.92;;;;;;;;;;5101862;28;20538;-62
2023/06/28 06:17:39;;;;;;;420.55;385.80;;;;;;;;;;5102750;28;20058;-62
2023/06/28 06:20:06;;;;;;;402.55;371.95;;;;;;;;;;5104354;28;20503;-62
2023/06/28 06:22:34;;;;;;;422.95;390.88;;;;;;;;;;5104725;28;20412;-63
2023/06/28 06:25:00;;;;;;;411.70;379.60;;;;;;;;;;5101166;28;20050;-62
2023/06/28 06:27:27;;;;;;;389.88;359.13;;;;;;;;;;5102000;28;20043;-62
2023/06/28 06:29:55;;;;;;;408.20;376.05;;;;;;;;;;5083585;28;20501;-62
2023/06/28 06:32:21;;;;;;;390.73;360.98;;;;;;;;;;5102612;28;20105;-63
2023/06/28 06:34:48;;;;;;;418.17;381.83;;;;;;;;;;5096774;28;20047;-62
2023/06/28 06:37:15;;;;;;;421.17;388.83;;;;;;;;;;5103459;28;20043;-68
2023/06/28 06:39:41;;;;;;;406.48;373.55;;;;;;;;;;5101563;28;20044;-67
2023/06/28 06:42:08;;;;;;;419.63;383.35;;;;;;;;;;5102757;28;20051;-63
2023/06/28 06:44:35;;;;;;;405.83;374.52;;;;;;;;;;5101398;28;20040;-65
2023/06/28 06:47:02;;;;;;;405.08;370.20;;;;;;;;;;5101209;28;20105;-63
2023/06/28 06:49:29;;;;;;;396.40;363.83;;;;;;;;;;5098298;28;20116;-63
2023/06/28 06:51:56;;;;;;;419.45;385.45;;;;;;;;;;5101755;28;20536;-64
2023/06/28 06:54:24;;;;;;;391.77;358.55;;;;;;;;;;5102377;28;20039;-64
2023/06/28 06:56:51;;;;;;;401.48;370.55;;;;;;;;;;5067646;28;20524;-63
2023/06/28 06:59:19;;;;;;;394.92;363.73;;;;;;;;;;5105056;28;20046;-63
2023/06/28 07:01:46;;;;;;;407.33;375.33;;;;;;;;;;5103481;28;20489;-63
2023/06/28 07:04:13;;;;;;;399.90;367.25;;;;;;;;;;5101294;28;20471;-64
2023/06/28 07:06:40;;;;;;;402.23;369.02;;;;;;;;;;5106786;28;20397;-65
2023/06/28 07:09:07;;;;;;;405.95;367.17;;;;;;;;;;5104546;28;20057;-62
2023/06/28 07:11:34;;;;;;;408.70;376.70;;;;;;;;;;5105663;28;20094;-61
2023/06/28 07:14:01;;;;;;;387.15;357.23;;;;;;;;;;5107336;28;20072;-61
2023/06/28 07:16:27;;;;;;;390.55;359.52;;;;;;;;;;5103176;28;20060;-62
2023/06/28 07:18:54;;;;;;;409.67;377.20;;;;;;;;;;5106135;28;20350;-61
2023/06/28 07:21:21;;;;;;;425.27;390.20;;;;;;;;;;5102214;28;20040;-62
2023/06/28 07:23:48;;;;;;;436.05;400.05;;;;;;;;;;5090295;28;20052;-62
2023/06/28 07:26:15;;;;;;;395.08;364.60;;;;;;;;;;5103572;28;20075;-63
2023/06/28 07:28:41;;;;;;;415.08;379.52;;;;;;;;;;5105272;28;20043;-62
2023/06/28 07:31:08;;;;;;;413.02;379.52;;;;;;;;;;5094977;28;20096;-64
2023/06/28 07:33:35;;;;;;;450.13;410.17;;;;;;;;;;5107927;28;20036;-62
2023/06/28 07:36:02;;;;;;;423.27;385.50;;;;;;;;;;5083620;28;20070;-64
2023/06/28 07:38:29;;;;;;;427.80;392.33;;;;;;;;;;5087977;28;20044;-64
2023/06/28 07:40:56;;;;;;;463.77;421.02;;;;;;;;;;5106421;28;20044;-63
2023/06/28 07:43:23;;;;;;;434.25;398.02;;;;;;;;;;5105626;28;20088;-61
2023/06/28 07:45:50;;;;;;;409.70;373.77;;;;;;;;;;5103143;28;20036;-63
2023/06/28 07:48:17;;;;;;;400.88;366.33;;;;;;;;;;5105367;28;20044;-64
2023/06/28 07:50:45;;;;;;;401.95;369.95;;;;;;;;;;5084543;28;20196;-64
2023/06/28 07:53:12;;;;;;;417.98;383.33;;;;;;;;;;5089048;28;20039;-62
2023/06/28 07:55:39;;;;;;;393.00;362.27;;;;;;;;;;5102612;28;20119;-62
2023/06/28 07:58:06;;;;;;;399.45;368.73;;;;;;;;;;5107536;28;20043;-58
2023/06/28 08:00:33;;;;;;;407.30;376.73;;;;;;;;;;5084820;28;20139;-63
2023/06/28 08:03:01;;;;;;;430.55;398.83;;;;;;;;;;5103033;28;20044;-63
2023/06/28 08:05:29;;;;;;;414.30;384.85;;;;;;;;;;5103210;28;20048;-65
2023/06/28 08:07:56;;;;;;;406.98;377.52;;;;;;;;;;5107399;28;20043;-59
2023/06/28 08:10:23;;;;;;;420.55;387.85;;;;;;;;;;5102985;28;20044;-60
2023/06/28 08:12:53;;;;;;;415.33;383.58;;;;;;;;;;5084715;28;20166;-60
2023/06/28 08:15:20;;;;;;;423.02;391.38;;;;;;;;;;5104597;28;20043;-59
2023/06/28 08:17:47;;;;;;;400.55;370.48;;;;;;;;;;5102687;28;20047;-61
2023/06/28 08:20:14;;;;;;;375.90;348.58;;;;;;;;;;5085876;28;20635;-60
2023/06/28 08:22:41;;;;;;;372.42;342.63;;;;;;;;;;5105162;28;20044;-62
2023/06/28 08:25:08;;;;;;;383.70;354.10;;;;;;;;;;5110664;28;20054;-61
2023/06/28 08:27:35;;;;;;;369.08;341.48;;;;;;;;;;5106132;28;20040;-59
2023/06/28 08:30:02;;;;;;;380.23;349.10;;;;;;;;;;5107116;28;20554;-61
2023/06/28 08:32:29;;;;;;;387.55;358.58;;;;;;;;;;5085576;28;20049;-60
2023/06/28 08:34:56;;;;;;;384.92;357.42;;;;;;;;;;5108119;28;20050;-61
2023/06/28 08:37:23;;;;;;;350.88;326.27;;;;;;;;;;5107207;28;20035;-61
2023/06/28 08:39:50;;;;;;;345.60;321.65;;;;;;;;;;5107378;28;20040;-58
2023/06/28 08:42:18;;;;;;;369.23;340.85;;;;;;;;;;5106299;28;20067;-60
2023/06/28 08:44:47;;;;;;;356.33;330.67;;;;;;;;;;5108175;28;20526;-61
2023/06/28 08:47:14;;;;;;;360.25;333.58;;;;;;;;;;5091408;28;20040;-60
2023/06/28 08:49:42;;;;;;;363.23;335.73;;;;;;;;;;5105086;28;20508;-60
2023/06/28 08:52:09;;;;;;;355.80;327.83;;;;;;;;;;5110166;28;20558;-55
2023/06/28 08:54:37;;;;;;;341.88;316.33;;;;;;;;;;5106035;28;20063;-61
2023/06/28 08:57:04;;;;;;;333.77;306.42;;;;;;;;;;5105315;28;20078;-61
2023/06/28 08:59:38;;;;;;;352.75;328.25;;;;;;;;;;5103271;28;20043;-61
2023/06/28 09:02:08;;;;;;;333.40;307.83;;;;;;;;;;5085903;28;20516;-61
2023/06/28 09:04:35;;;;;;;357.52;330.77;;;;;;;;;;5104525;28;20052;-59
2023/06/28 09:07:02;;;;;;;342.48;316.83;;;;;;;;;;5102646;28;20043;-63
2023/06/28 09:09:30;;;;;;;356.02;329.95;;;;;;;;;;5106532;28;20090;-62
2023/06/28 09:11:56;;;;;;;347.38;322.73;;;;;;;;;;5101475;28;20054;-62
2023/06/28 09:14:23;;;;;;;336.15;311.88;;;;;;;;;;5107601;28;20056;-61
2023/06/28 09:16:50;;;;;;;345.85;321.95;;;;;;;;;;5103643;28;20060;-61
2023/06/28 09:19:17;;;;;;;331.40;307.38;;;;;;;;;;5103394;28;20052;-60
2023/06/28 09:21:45;;;;;;;358.33;332.02;;;;;;;;;;5108150;28;20042;-61
2023/06/28 09:24:12;;;;;;;355.10;325.35;;;;;;;;;;5103837;28;20040;-61
2023/06/28 09:26:41;;;;;;;335.48;313.23;;;;;;;;;;5100797;28;20404;-61
2023/06/28 09:29:09;;;;;;;339.95;315.52;;;;;;;;;;5099853;28;20062;-60
2023/06/28 09:31:46;;;;;;;335.75;310.48;;;;;;;;;;5102725;28;20054;-60
2023/06/28 09:34:13;;;;;;;325.58;302.45;;;;;;;;;;5103730;28;20036;-59
2023/06/28 09:36:40;;;;;;;337.95;313.15;;;;;;;;;;5104930;28;20043;-58
2023/06/28 09:39:09;;;;;;;332.05;305.35;;;;;;;;;;5103705;28;20070;-62
2023/06/28 09:41:37;;;;;;;338.30;314.70;;;;;;;;;;5102975;28;20050;-61
2023/06/28 09:44:04;;;;;;;336.42;313.42;;;;;;;;;;5104207;28;20099;-60
2023/06/28 09:46:32;;;;;;;338.40;313.15;;;;;;;;;;5100657;28;20442;-61
2023/06/28 09:48:58;;;;;;;342.75;318.98;;;;;;;;;;5101633;28;20093;-61
2023/06/28 09:51:25;;;;;;;348.48;322.20;;;;;;;;;;5099434;28;20122;-61
2023/06/28 09:53:53;;;;;;;344.27;319.42;;;;;;;;;;5103819;28;20054;-54
2023/06/28 09:56:35;;;;;;;339.98;316.02;;;;;;;;;;5104910;28;20076;-56
2023/06/28 09:59:04;;;;;;;353.67;328.73;;;;;;;;;;5102888;28;20040;-61
2023/06/28 10:01:31;;;;;;;360.08;330.88;;;;;;;;;;5103182;28;20400;-54
2023/06/28 10:03:58;;;;;;;331.08;308.05;;;;;;;;;;5104172;28;20036;-60
2023/06/28 10:06:27;;;;;;;338.40;312.60;;;;;;;;;;5086483;28;20036;-61
2023/06/28 10:08:54;;;;;;;341.35;316.02;;;;;;;;;;5098531;28;20043;-61
2023/06/28 10:11:23;;;;;;;337.77;312.95;;;;;;;;;;5103626;28;20451;-59
2023/06/28 10:13:50;;;;;;;342.70;316.52;;;;;;;;;;5099905;28;20063;-61
2023/06/28 10:16:18;;;;;;;332.13;307.85;;;;;;;;;;5104019;28;20442;-60
2023/06/28 10:18:45;;;;;;;336.88;313.25;;;;;;;;;;5103287;28;20131;-57
2023/06/28 10:21:11;;;;;;;335.77;308.65;;;;;;;;;;5102680;28;20390;-60
2023/06/28 10:23:40;;;;;;;322.23;299.88;;;;;;;;;;5098831;28;20058;-58
2023/06/28 10:26:07;;;;;;;328.30;305.38;;;;;;;;;;5102514;28;20056;-60
2023/06/28 10:28:35;;;;;;;320.23;296.45;;;;;;;;;;5103324;28;20042;-59
2023/06/28 10:31:03;;;;;;;325.23;302.45;;;;;;;;;;5105113;28;20089;-62
2023/06/28 10:33:32;;;;;;;326.67;303.42;;;;;;;;;;5103729;28;20394;-61
2023/06/28 10:36:02;;;;;;;318.98;295.15;;;;;;;;;;5097536;28;20052;-60
2023/06/28 10:38:45;;;;;;;331.83;306.83;;;;;;;;;;5102712;28;20048;-61
2023/06/28 10:41:13;;;;;;;324.08;301.42;;;;;;;;;;5098441;28;20062;-60
2023/06/28 10:43:40;;;;;;;327.60;305.27;;;;;;;;;;5104153;28;20470;-53
2023/06/28 10:46:36;;;;;;;329.67;305.42;;;;;;;;;;5103514;28;20184;-59
2023/06/28 10:49:03;;;;;;;335.35;311.13;;;;;;;;;;5018391;28;20062;-57
2023/06/28 10:51:31;;;;;;;328.63;305.23;;;;;;;;;;5020180;28;20046;-61
2023/06/28 10:54:08;;;;;;;322.50;300.25;;;;;;;;;;5018775;28;20466;-60
2023/06/28 10:56:47;;;;;;;334.73;310.60;;;;;;;;;;5041623;28;20492;-57
2023/06/28 10:59:13;;;;;;;349.95;324.35;;;;;;;;;;5037271;28;20056;-60
2023/06/28 11:01:46;;;;;;;338.98;314.60;;;;;;;;;;5036358;28;20522;-60
2023/06/28 11:04:17;;;;;;;345.40;319.20;;;;;;;;;;5042144;28;20557;-62
2023/06/28 11:06:45;;;;;;;337.63;313.67;;;;;;;;;;5038871;28;20479;-60
2023/06/28 11:09:16;;;;;;;370.95;337.88;;;;;;;;;;5035689;28;20076;-53
2023/06/28 11:11:51;;;;;;;335.05;310.92;;;;;;;;;;5035976;28;20629;-63
2023/06/28 11:14:25;;;;;;;340.13;315.90;;;;;;;;;;5025736;28;20099;-61
2023/06/28 11:16:53;;;;;;;336.35;313.52;;;;;;;;;;5034881;28;20052;-55
2023/06/28 11:19:22;;;;;;;350.33;323.23;;;;;;;;;;5036652;28;20136;-61
2023/06/28 11:21:59;;;;;;;325.98;302.88;;;;;;;;;;5041992;28;20045;-60
2023/06/28 11:24:41;;;;;;;323.98;299.52;;;;;;;;;;5042654;28;20044;-60
2023/06/28 11:27:15;;;;;;;342.13;313.38;;;;;;;;;;5101216;28;20051;-56
2023/06/28 11:29:56;;;;;;;314.88;292.17;;;;;;;;;;5096268;28;20042;-61
2023/06/28 11:32:27;;;;;;;318.25;294.90;;;;;;;;;;5105805;28;20477;-60
2023/06/28 11:34:55;;;;;;;317.63;294.92;;;;;;;;;;5099942;28;20040;-61
2023/06/28 11:37:22;;;;;;;324.60;301.38;;;;;;;;;;5101056;28;20727;-60
2023/06/28 11:39:49;;;;;;;311.02;290.20;;;;;;;;;;5101532;28;20511;-60
2023/06/28 11:42:19;;;;;;;313.42;287.90;;;;;;;;;;5082993;28;20051;-61
2023/06/28 11:44:47;;;;;;;325.88;302.45;;;;;;;;;;5100260;28;20089;-59
2023/06/28 11:47:16;;;;;;;310.98;287.13;;;;;;;;;;5102074;28;20062;-58
2023/06/28 11:49:47;;;;;;;295.25;274.83;;;;;;;;;;5101348;28;20044;-61
2023/06/28 11:52:17;;;;;;;311.83;288.08;;;;;;;;;;5101997;28;20036;-60
2023/06/28 11:54:44;;;;;;;307.75;286.75;;;;;;;;;;5093512;28;20036;-61
2023/06/28 11:57:11;;;;;;;326.08;298.70;;;;;;;;;;5101697;28;20048;-55
2023/06/28 11:59:44;;;;;;;310.20;287.98;;;;;;;;;;5103742;28;20043;-60
2023/06/28 12:02:11;;;;;;;322.38;297.98;;;;;;;;;;5102016;28;20051;-60
2023/06/28 12:04:38;;;;;;;350.60;324.17;;;;;;;;;;5097328;28;20097;-56
2023/06/28 12:07:05;;;;;;;354.92;329.58;;;;;;;;;;5095038;28;20040;-52
2023/06/28 12:09:33;;;;;;;325.63;302.27;;;;;;;;;;5101269;28;20054;-61
2023/06/28 12:12:02;;;;;;;320.70;296.95;;;;;;;;;;5101255;28;20051;-62
2023/06/28 12:14:30;;;;;;;313.70;292.40;;;;;;;;;;5099407;28;20461;-61
2023/06/28 12:16:57;;;;;;;324.00;301.08;;;;;;;;;;5088569;28;20195;-61
2023/06/28 12:19:26;;;;;;;320.27;297.27;;;;;;;;;;5104183;28;20063;-59
2023/06/28 12:21:54;;;;;;;323.02;299.50;;;;;;;;;;5098520;28;20043;-60
2023/06/28 12:24:24;;;;;;;323.13;297.40;;;;;;;;;;5097249;28;20088;-61
2023/06/28 12:26:52;;;;;;;301.42;281.30;;;;;;;;;;5099504;28;20031;-62
2023/06/28 12:29:22;;;;;;;309.05;287.15;;;;;;;;;;5104421;28;20174;-61
2023/06/28 12:31:52;;;;;;;295.80;274.08;;;;;;;;;;5094551;28;20040;-60
2023/06/28 12:34:23;;;;;;;289.70;268.58;;;;;;;;;;5099233;28;20040;-57
2023/06/28 12:36:50;;;;;;;274.60;255.02;;;;;;;;;;5102848;28;20119;-60
2023/06/28 12:39:20;;;;;;;294.63;266.92;;;;;;;;;;5100835;28;20039;-61
2023/06/28 12:41:59;;;;;;;297.92;276.77;;;;;;;;;;5098228;28;20400;-60
2023/06/28 12:44:26;;;;;;;292.52;271.25;;;;;;;;;;5096668;28;20055;-62
2023/06/28 12:46:53;;;;;;;285.63;264.02;;;;;;;;;;5104097;28;20051;-57
2023/06/28 12:49:19;;;;;;;313.17;291.08;;;;;;;;;;5095518;28;20052;-60
2023/06/28 12:51:47;;;;;;;333.00;308.95;;;;;;;;;;5101756;28;20036;-60
2023/06/28 12:54:14;;;;;;;309.13;282.20;;;;;;;;;;5100155;28;20457;-61
2023/06/28 12:56:41;;;;;;;295.27;274.00;;;;;;;;;;5100980;28;20047;-60
2023/06/28 12:59:08;;;;;;;312.00;287.55;;;;;;;;;;5100776;28;20082;-60
2023/06/28 13:01:38;;;;;;;304.08;283.83;;;;;;;;;;5097807;28;20074;-56
2023/06/28 13:04:05;;;;;;;299.45;277.52;;;;;;;;;;5098554;28;20490;-61
2023/06/28 13:06:32;;;;;;;303.27;280.98;;;;;;;;;;5100271;28;20039;-62
2023/06/28 13:08:58;;;;;;;289.33;268.90;;;;;;;;;;5105049;28;20043;-60
2023/06/28 13:11:30;;;;;;;298.15;276.60;;;;;;;;;;5103337;28;20119;-60
2023/06/28 13:13:58;;;;;;;319.05;294.80;;;;;;;;;;5103357;28;20452;-60
2023/06/28 13:16:24;;;;;;;311.77;290.75;;;;;;;;;;5101780;28;20035;-61
2023/06/28 13:18:51;;;;;;;305.90;284.95;;;;;;;;;;5085604;28;20052;-57
2023/06/28 13:21:18;;;;;;;320.42;291.95;;;;;;;;;;5099634;28;20140;-62
2023/06/28 13:23:45;;;;;;;290.63;270.30;;;;;;;;;;5104535;28;20047;-61
2023/06/28 13:26:12;;;;;;;283.95;263.30;;;;;;;;;;5105178;28;20110;-54
2023/06/28 13:28:38;;;;;;;302.65;280.95;;;;;;;;;;5102166;28;20119;-60
2023/06/28 13:31:05;;;;;;;300.75;279.00;;;;;;;;;;5104542;28;20037;-61
2023/06/28 13:33:32;;;;;;;306.27;285.00;;;;;;;;;;5102886;28;20032;-59
2023/06/28 13:35:58;;;;;;;316.77;293.85;;;;;;;;;;5105191;28;20136;-60
2023/06/28 13:38:25;;;;;;;292.63;272.00;;;;;;;;;;5100919;28;20048;-60
2023/06/28 13:40:51;;;;;;;279.20;260.85;;;;;;;;;;5085220;28;20412;-61
2023/06/28 13:43:18;;;;;;;305.30;280.25;;;;;;;;;;5106668;28;20059;-61
2023/06/28 13:45:45;;;;;;;308.13;286.42;;;;;;;;;;5082973;28;20044;-56
2023/06/28 13:48:11;;;;;;;322.60;295.45;;;;;;;;;;5099268;28;20396;-61
2023/06/28 13:50:38;;;;;;;315.73;293.27;;;;;;;;;;5083481;28;20051;-61
2023/06/28 13:53:05;;;;;;;337.83;314.52;;;;;;;;;;5102046;28;20047;-61
2023/06/28 13:55:31;;;;;;;354.35;328.95;;;;;;;;;;5083414;28;20044;-56